createdAt,value
2017-12-29T00:01:31.886Z,3.90
2017-12-29T00:03:59.379Z,3.90
2017-12-29T00:06:27.634Z,4.00
2017-12-29T00:08:55.168Z,3.90
2017-12-29T00:11:22.660Z,3.90
2017-12-29T00:13:50.911Z,4.00
2017-12-29T00:16:18.405Z,4.00
2017-12-29T00:18:46.683Z,4.10
2017-12-29T00:21:14.178Z,4.00
2017-12-29T00:23:41.670Z,4.00
2017-12-29T00:26:09.940Z,4.00
2017-12-29T00:28:37.434Z,3.90
2017-12-29T00:31:04.922Z,4.00
2017-12-29T00:33:32.414Z,4.00
2017-12-29T00:35:59.906Z,4.10
2017-12-29T00:38:28.186Z,4.10
2017-12-29T00:40:56.651Z,4.20
2017-12-29T00:43:24.906Z,4.10
2017-12-29T00:45:52.415Z,4.10
2017-12-29T00:48:19.915Z,4.10
2017-12-29T00:50:47.406Z,4.20
2017-12-29T00:53:15.678Z,4.20
2017-12-29T00:55:43.930Z,4.20
2017-12-29T00:58:12.197Z,4.20
2017-12-29T01:00:39.703Z,4.20
2017-12-29T01:03:07.974Z,4.10
2017-12-29T01:05:36.235Z,4.10
2017-12-29T01:08:04.490Z,4.20
2017-12-29T01:10:32.004Z,4.20
2017-12-29T01:12:59.490Z,4.20
2017-12-29T01:15:27.194Z,4.20
2017-12-29T01:17:55.446Z,4.20
2017-12-29T01:20:23.134Z,4.20
2017-12-29T01:22:51.402Z,4.10
2017-12-29T01:25:18.918Z,4.10
2017-12-29T01:27:46.403Z,4.00
2017-12-29T01:30:13.891Z,4.10
2017-12-29T01:32:42.171Z,4.00
2017-12-29T01:35:10.422Z,4.10
2017-12-29T01:37:37.930Z,4.10
2017-12-29T01:40:06.211Z,4.00
2017-12-29T01:42:33.720Z,4.00
2017-12-29T01:45:01.214Z,4.00
2017-12-29T01:47:28.722Z,3.90
2017-12-29T01:49:56.211Z,3.90
2017-12-29T01:52:24.467Z,4.00
2017-12-29T01:54:51.968Z,3.90
2017-12-29T01:57:19.474Z,3.90
2017-12-29T01:59:46.972Z,3.90
2017-12-29T02:02:14.459Z,3.80
2017-12-29T02:04:41.951Z,3.80
2017-12-29T02:07:09.439Z,3.80
2017-12-29T02:09:37.700Z,3.90
2017-12-29T02:12:05.975Z,3.80
2017-12-29T02:14:34.258Z,3.80
2017-12-29T02:17:02.538Z,3.80
2017-12-29T02:19:30.790Z,3.60
2017-12-29T02:21:58.278Z,3.60
2017-12-29T02:24:26.795Z,3.70
2017-12-29T02:26:55.019Z,3.60
2017-12-29T02:29:22.534Z,3.70
2017-12-29T02:31:50.019Z,3.70
2017-12-29T02:34:19.011Z,3.80
2017-12-29T02:36:46.524Z,3.80
2017-12-29T02:39:14.026Z,3.80
2017-12-29T02:41:42.299Z,3.70
2017-12-29T02:44:09.787Z,3.60
2017-12-29T02:46:38.071Z,3.60
2017-12-29T02:49:06.334Z,3.60
2017-12-29T02:51:34.604Z,3.70
2017-12-29T02:54:02.111Z,3.70
2017-12-29T02:56:29.604Z,3.50
2017-12-29T02:58:57.099Z,3.50
2017-12-29T03:01:25.357Z,3.40
2017-12-29T03:03:52.851Z,3.40
2017-12-29T03:06:20.483Z,3.50
2017-12-29T03:08:48.832Z,3.60
2017-12-29T03:11:16.334Z,3.60
2017-12-29T03:13:43.822Z,3.50
2017-12-29T03:16:11.330Z,3.50
2017-12-29T03:18:39.591Z,3.30
2017-12-29T03:21:07.078Z,3.30
2017-12-29T03:23:35.358Z,3.30
2017-12-29T03:26:03.615Z,3.30
2017-12-29T03:28:31.871Z,3.30
2017-12-29T03:30:59.559Z,3.30
2017-12-29T03:33:27.834Z,3.30
2017-12-29T03:35:56.090Z,3.30
2017-12-29T03:38:25.082Z,3.20
2017-12-29T03:40:52.580Z,3.30
2017-12-29T03:43:20.084Z,3.30
2017-12-29T03:45:47.574Z,3.20
2017-12-29T03:48:15.082Z,3.10
2017-12-29T03:50:42.595Z,3.10
2017-12-29T03:53:10.850Z,3.00
2017-12-29T03:55:38.363Z,3.00
2017-12-29T03:58:05.875Z,3.00
2017-12-29T04:00:33.362Z,3.00
2017-12-29T04:03:01.619Z,2.90
2017-12-29T04:05:30.007Z,2.90
2017-12-29T04:07:58.263Z,2.90
2017-12-29T04:10:25.775Z,2.90
2017-12-29T04:12:53.275Z,2.90
2017-12-29T04:15:20.786Z,2.90
2017-12-29T04:17:48.305Z,2.90
2017-12-29T04:20:15.791Z,2.90
2017-12-29T04:22:43.287Z,2.80
2017-12-29T04:25:10.774Z,2.90
2017-12-29T04:27:38.279Z,2.80
2017-12-29T04:30:05.779Z,2.70
2017-12-29T04:32:33.262Z,2.70
2017-12-29T04:35:01.530Z,2.60
2017-12-29T04:37:29.027Z,2.60
2017-12-29T04:39:56.513Z,2.70
2017-12-29T04:42:24.030Z,2.70
2017-12-29T04:44:51.532Z,2.70
2017-12-29T04:47:19.234Z,2.70
2017-12-29T04:49:47.516Z,2.70
2017-12-29T04:52:15.795Z,2.70
2017-12-29T04:54:44.055Z,2.70
2017-12-29T04:57:11.569Z,2.80
2017-12-29T04:59:39.058Z,2.70
2017-12-29T05:02:06.550Z,2.70
2017-12-29T05:04:34.812Z,2.60
2017-12-29T05:07:03.066Z,2.60
2017-12-29T05:09:30.566Z,2.60
2017-12-29T05:11:58.077Z,2.60
2017-12-29T05:14:25.582Z,2.70
2017-12-29T05:16:53.094Z,2.60
2017-12-29T05:19:20.603Z,2.60
2017-12-29T05:21:48.242Z,2.60
2017-12-29T05:24:16.726Z,2.50
2017-12-29T05:26:44.994Z,2.60
2017-12-29T05:29:12.488Z,2.60
2017-12-29T05:31:39.983Z,2.60
2017-12-29T05:34:07.474Z,2.50
2017-12-29T05:36:35.738Z,2.40
2017-12-29T05:39:03.247Z,2.50
2017-12-29T05:41:30.750Z,2.40
2017-12-29T05:43:58.239Z,2.40
2017-12-29T05:46:26.490Z,2.40
2017-12-29T05:48:53.978Z,2.40
2017-12-29T05:51:21.474Z,2.30
2017-12-29T05:53:48.970Z,2.30
2017-12-29T05:56:17.231Z,2.40
2017-12-29T05:58:44.719Z,2.40
2017-12-29T06:01:12.974Z,2.30
2017-12-29T06:03:40.468Z,2.30
2017-12-29T06:06:07.958Z,2.40
2017-12-29T06:08:35.450Z,2.40
2017-12-29T06:11:02.985Z,2.40
2017-12-29T06:13:30.462Z,2.30
2017-12-29T06:15:57.951Z,2.30
2017-12-29T06:18:25.442Z,2.30
2017-12-29T06:20:52.932Z,2.30
2017-12-29T06:23:20.514Z,2.30
2017-12-29T06:25:48.794Z,2.20
2017-12-29T06:28:17.046Z,2.30
2017-12-29T06:30:44.539Z,2.30
2017-12-29T06:33:12.042Z,2.30
2017-12-29T06:35:39.539Z,2.30
2017-12-29T06:38:07.809Z,2.30
2017-12-29T06:40:36.090Z,2.10
2017-12-29T06:43:04.347Z,2.20
2017-12-29T06:45:31.842Z,2.20
2017-12-29T06:47:59.334Z,2.20
2017-12-29T06:50:26.822Z,2.30
2017-12-29T06:52:54.310Z,2.20
2017-12-29T06:55:22.582Z,2.20
2017-12-29T06:57:50.858Z,2.20
2017-12-29T07:00:19.115Z,2.30
2017-12-29T07:02:47.383Z,2.30
2017-12-29T07:05:14.891Z,2.30
2017-12-29T07:07:42.379Z,2.10
2017-12-29T07:10:09.870Z,2.20
2017-12-29T07:12:38.142Z,2.10
2017-12-29T07:15:06.427Z,2.00
2017-12-29T07:17:34.678Z,2.10
2017-12-29T07:20:02.373Z,2.10
2017-12-29T07:22:30.643Z,2.10
2017-12-29T07:24:59.138Z,2.10
2017-12-29T07:27:26.630Z,2.10
2017-12-29T07:29:54.134Z,2.10
2017-12-29T07:32:21.625Z,2.20
2017-12-29T07:34:49.114Z,2.20
2017-12-29T07:37:16.602Z,2.10
2017-12-29T07:39:44.103Z,2.10
2017-12-29T07:42:11.607Z,2.10
2017-12-29T07:44:39.102Z,2.10
2017-12-29T07:47:07.366Z,2.20
2017-12-29T07:49:35.620Z,2.10
2017-12-29T07:52:03.132Z,2.10
2017-12-29T07:54:32.635Z,2.10
2017-12-29T07:57:00.134Z,2.00
2017-12-29T07:59:27.623Z,2.00
2017-12-29T08:01:55.192Z,2.10
2017-12-29T08:04:22.674Z,2.20
2017-12-29T08:06:50.195Z,2.10
2017-12-29T08:09:18.455Z,2.10
2017-12-29T08:11:45.947Z,2.10
2017-12-29T08:14:13.451Z,2.20
2017-12-29T08:16:40.943Z,2.10
2017-12-29T08:19:09.218Z,2.10
2017-12-29T08:21:37.495Z,2.10
2017-12-29T08:24:05.751Z,2.20
2017-12-29T08:26:33.239Z,2.20
2017-12-29T08:29:01.499Z,2.40
2017-12-29T08:31:29.016Z,2.40
2017-12-29T08:33:56.935Z,2.40
2017-12-29T08:36:25.195Z,2.40
2017-12-29T08:38:52.707Z,2.40
2017-12-29T08:41:20.219Z,2.40
2017-12-29T08:43:48.483Z,2.40
2017-12-29T08:46:15.994Z,2.40
2017-12-29T08:48:43.627Z,2.50
2017-12-29T08:51:11.883Z,2.50
2017-12-29T08:53:39.375Z,2.50
2017-12-29T08:56:07.647Z,2.60
2017-12-29T08:58:35.902Z,2.60
2017-12-29T09:01:03.395Z,2.60
2017-12-29T09:03:30.921Z,2.70
2017-12-29T09:05:58.423Z,2.80
2017-12-29T09:08:25.911Z,2.80
2017-12-29T09:10:53.399Z,2.80
2017-12-29T09:13:21.678Z,2.90
2017-12-29T09:15:49.930Z,3.10
2017-12-29T09:18:17.422Z,3.10
2017-12-29T09:20:45.682Z,3.20
2017-12-29T09:23:13.954Z,3.20
2017-12-29T09:25:42.214Z,3.20
2017-12-29T09:28:11.227Z,3.30
2017-12-29T09:30:38.715Z,3.30
2017-12-29T09:33:06.210Z,3.40
2017-12-29T09:35:33.702Z,3.40
2017-12-29T09:38:01.964Z,3.50
2017-12-29T09:40:29.472Z,3.50
2017-12-29T09:42:56.979Z,3.50
2017-12-29T09:45:24.474Z,3.40
2017-12-29T09:47:52.131Z,3.30
2017-12-29T09:50:20.603Z,3.30
2017-12-29T09:52:48.854Z,3.30
2017-12-29T09:55:16.351Z,3.30
2017-12-29T09:57:43.846Z,3.40
2017-12-29T10:00:11.351Z,3.40
2017-12-29T10:02:39.648Z,3.40
2017-12-29T10:05:07.180Z,3.40
2017-12-29T10:07:34.854Z,3.50
2017-12-29T10:10:03.136Z,3.50
2017-12-29T10:12:31.401Z,3.60
2017-12-29T10:14:59.697Z,3.80
2017-12-29T10:17:27.353Z,3.80
2017-12-29T10:19:55.654Z,3.80
2017-12-29T10:22:23.175Z,3.80
2017-12-29T10:24:51.807Z,3.80
2017-12-29T10:27:19.363Z,3.80
2017-12-29T10:29:46.851Z,3.80
2017-12-29T10:32:14.474Z,3.80
2017-12-29T10:34:41.970Z,3.90
2017-12-29T10:37:09.543Z,3.90
2017-12-29T10:39:37.072Z,4.00
2017-12-29T10:42:04.598Z,3.90
2017-12-29T10:44:32.092Z,4.00
2017-12-29T10:46:59.635Z,4.00
2017-12-29T10:49:27.142Z,4.00
2017-12-29T10:51:54.648Z,3.90
2017-12-29T10:54:22.183Z,4.00
2017-12-29T10:56:49.682Z,4.00
2017-12-29T10:59:17.201Z,4.00
2017-12-29T11:01:45.477Z,4.10
2017-12-29T11:04:13.754Z,4.20
2017-12-29T11:06:41.285Z,4.20
2017-12-29T11:09:08.828Z,4.20
2017-12-29T11:11:36.315Z,4.10
2017-12-29T11:14:04.605Z,4.20
2017-12-29T11:16:32.868Z,4.20
2017-12-29T11:19:01.127Z,4.30
2017-12-29T11:21:29.445Z,4.20
2017-12-29T11:23:56.908Z,4.20
2017-12-29T11:26:24.436Z,4.20
2017-12-29T11:28:52.921Z,4.40
2017-12-29T11:31:21.175Z,4.50
2017-12-29T11:33:48.858Z,4.50
2017-12-29T11:36:17.130Z,4.40
2017-12-29T11:38:45.406Z,4.50
2017-12-29T11:41:13.678Z,4.50
2017-12-29T11:43:41.939Z,4.60
2017-12-29T11:46:09.441Z,4.60
2017-12-29T11:48:36.936Z,4.50
2017-12-29T11:51:04.445Z,4.40
2017-12-29T11:53:32.742Z,4.60
2017-12-29T11:56:00.281Z,4.60
2017-12-29T11:58:28.570Z,5.00
2017-12-29T12:00:56.063Z,4.90
2017-12-29T12:03:23.599Z,5.10
2017-12-29T12:05:51.114Z,5.20
2017-12-29T12:08:18.621Z,5.10
2017-12-29T12:10:46.291Z,5.00
2017-12-29T12:13:13.825Z,4.90
2017-12-29T12:15:41.398Z,4.70
2017-12-29T12:18:09.673Z,4.70
2017-12-29T12:20:37.179Z,4.70
2017-12-29T12:23:04.698Z,4.70
2017-12-29T12:25:32.202Z,4.50
2017-12-29T12:27:59.700Z,4.40
2017-12-29T12:30:27.186Z,4.50
2017-12-29T12:32:54.674Z,4.30
2017-12-29T12:35:22.278Z,4.40
2017-12-29T12:37:49.771Z,4.40
2017-12-29T12:40:17.259Z,4.60
2017-12-29T12:42:44.766Z,4.70
2017-12-29T12:45:12.370Z,4.70
2017-12-29T12:47:40.634Z,4.70
2017-12-29T12:50:08.128Z,4.70
2017-12-29T12:52:36.394Z,4.90
2017-12-29T12:55:04.655Z,4.80
2017-12-29T12:57:32.145Z,4.80
2017-12-29T12:59:59.650Z,4.80
2017-12-29T13:02:27.143Z,4.80
2017-12-29T13:04:55.399Z,4.60
2017-12-29T13:07:22.908Z,4.50
2017-12-29T13:09:50.458Z,4.50
2017-12-29T13:12:18.818Z,4.60
2017-12-29T13:14:47.194Z,5.50
2017-12-29T13:17:15.450Z,8.40
2017-12-29T13:19:42.938Z,8.40
2017-12-29T13:22:11.202Z,12.50
2017-12-29T13:24:39.463Z,12.40
2017-12-29T13:27:06.959Z,12.40
2017-12-29T13:29:34.454Z,11.20
2017-12-29T13:32:01.951Z,10.20
2017-12-29T13:34:30.230Z,12.70
2017-12-29T13:36:58.499Z,13.40
2017-12-29T13:39:26.772Z,14.90
2017-12-29T13:41:55.046Z,16.10
2017-12-29T13:44:22.731Z,16.10
2017-12-29T13:46:51.003Z,17.30
2017-12-29T13:49:19.263Z,16.70
2017-12-29T13:51:46.770Z,16.60
2017-12-29T13:54:14.271Z,15.00
2017-12-29T13:56:41.795Z,13.00
2017-12-29T13:59:09.295Z,11.60
2017-12-29T14:01:36.787Z,10.30
2017-12-29T14:04:04.296Z,9.20
2017-12-29T14:06:31.788Z,8.40
2017-12-29T14:09:00.061Z,6.90
2017-12-29T14:11:28.337Z,6.50
2017-12-29T14:13:56.598Z,6.20
2017-12-29T14:16:24.087Z,6.20
2017-12-29T14:18:51.610Z,5.80
2017-12-29T14:21:19.171Z,5.40
2017-12-29T14:23:46.638Z,5.20
2017-12-29T14:26:14.906Z,4.60
2017-12-29T14:28:42.423Z,4.60
2017-12-29T14:31:09.926Z,4.50
2017-12-29T14:33:37.429Z,4.30
2017-12-29T14:36:04.938Z,4.20
2017-12-29T14:38:32.451Z,4.10
2017-12-29T14:41:00.071Z,4.00
2017-12-29T14:43:28.370Z,3.70
2017-12-29T14:45:55.899Z,3.70
2017-12-29T14:48:23.408Z,3.70
2017-12-29T14:50:50.912Z,3.60
2017-12-29T14:53:18.407Z,3.50
2017-12-29T14:55:45.918Z,3.50
2017-12-29T14:58:13.699Z,3.30
2017-12-29T15:00:41.963Z,3.30
2017-12-29T15:03:09.467Z,3.30
2017-12-29T15:05:36.958Z,3.30
2017-12-29T15:08:04.446Z,3.20
2017-12-29T15:10:32.703Z,3.10
2017-12-29T15:13:00.195Z,3.10
2017-12-29T15:15:28.454Z,3.00
2017-12-29T15:17:56.714Z,2.90
2017-12-29T15:20:24.245Z,2.90
2017-12-29T15:22:51.871Z,3.00
2017-12-29T15:25:20.127Z,2.90
2017-12-29T15:27:47.618Z,2.90
2017-12-29T15:30:15.107Z,2.70
2017-12-29T15:32:42.610Z,2.70
2017-12-29T15:35:10.882Z,2.70
2017-12-29T15:37:39.156Z,2.60
2017-12-29T15:40:07.500Z,2.60
2017-12-29T15:42:34.995Z,2.60
2017-12-29T15:45:02.495Z,2.60
2017-12-29T15:47:30.011Z,2.60
2017-12-29T15:49:58.276Z,2.50
2017-12-29T15:52:27.274Z,2.50
2017-12-29T15:54:54.762Z,2.50
2017-12-29T15:57:22.270Z,2.50
2017-12-29T15:59:49.766Z,2.50
2017-12-29T16:02:21.717Z,2.40
2017-12-29T16:04:49.207Z,2.40
2017-12-29T16:07:16.697Z,2.40
2017-12-29T16:09:44.191Z,2.50
2017-12-29T16:12:11.679Z,2.50
2017-12-29T16:14:39.176Z,2.50
2017-12-29T16:17:06.674Z,2.50
2017-12-29T16:19:34.935Z,2.50
2017-12-29T16:22:02.427Z,2.50
2017-12-29T16:24:30.035Z,2.50
2017-12-29T16:26:57.523Z,2.50
2017-12-29T16:29:25.778Z,2.50
2017-12-29T16:31:53.303Z,2.50
2017-12-29T16:34:20.790Z,2.60
2017-12-29T16:36:48.298Z,2.60
2017-12-29T16:39:15.803Z,2.60
2017-12-29T16:41:43.290Z,2.60
2017-12-29T16:44:11.561Z,2.50
2017-12-29T16:46:39.056Z,2.50
2017-12-29T16:49:06.570Z,2.50
2017-12-29T16:51:34.077Z,2.50
2017-12-29T16:54:01.591Z,2.50
2017-12-29T16:56:29.098Z,2.40
2017-12-29T16:58:56.607Z,2.40
2017-12-29T17:01:24.143Z,2.30
2017-12-29T17:03:51.709Z,2.30
2017-12-29T17:06:19.174Z,2.20
2017-12-29T17:08:46.662Z,2.20
2017-12-29T17:11:14.939Z,2.20
2017-12-29T17:13:43.219Z,2.10
2017-12-29T17:16:11.679Z,2.10
2017-12-29T17:18:40.169Z,2.00
2017-12-29T17:21:08.434Z,2.00
2017-12-29T17:23:36.694Z,2.00
2017-12-29T17:26:04.197Z,2.00
2017-12-29T17:28:31.687Z,1.90
2017-12-29T17:30:59.183Z,1.90
2017-12-29T17:33:26.681Z,1.80
2017-12-29T17:35:54.179Z,1.80
2017-12-29T17:38:21.667Z,1.80
2017-12-29T17:40:49.938Z,1.80
2017-12-29T17:43:18.213Z,1.80
2017-12-29T17:45:46.487Z,1.80
2017-12-29T17:48:14.747Z,1.70
2017-12-29T17:50:42.263Z,1.70
2017-12-29T17:53:09.898Z,1.70
2017-12-29T17:55:37.403Z,1.60
2017-12-29T17:58:04.922Z,1.60
2017-12-29T18:00:33.212Z,1.50
2017-12-29T18:03:00.712Z,1.50
2017-12-29T18:05:28.414Z,1.50
2017-12-29T18:07:56.691Z,1.50
2017-12-29T18:10:24.210Z,1.50
2017-12-29T18:12:51.698Z,1.50
2017-12-29T18:15:19.954Z,1.60
2017-12-29T18:17:47.452Z,1.50
2017-12-29T18:20:14.942Z,1.50
2017-12-29T18:22:42.451Z,1.50
2017-12-29T18:25:10.714Z,1.30
2017-12-29T18:27:38.202Z,1.30
2017-12-29T18:30:05.713Z,1.30
2017-12-29T18:32:33.202Z,1.30
2017-12-29T18:35:01.466Z,1.30
2017-12-29T18:37:28.958Z,1.20
2017-12-29T18:39:56.451Z,1.20
2017-12-29T18:42:23.950Z,1.10
2017-12-29T18:44:52.214Z,1.00
2017-12-29T18:47:19.703Z,1.00
2017-12-29T18:49:47.204Z,1.00
2017-12-29T18:52:14.718Z,1.00
2017-12-29T18:54:43.046Z,1.00
2017-12-29T18:57:10.547Z,1.00
2017-12-29T18:59:38.827Z,0.90
2017-12-29T19:02:07.094Z,0.80
2017-12-29T19:04:35.370Z,0.80
2017-12-29T19:07:03.632Z,0.90
2017-12-29T19:09:31.319Z,0.80
2017-12-29T19:11:59.852Z,0.80
2017-12-29T19:14:27.354Z,0.80
2017-12-29T19:16:55.610Z,0.70
2017-12-29T19:19:23.132Z,0.70
2017-12-29T19:21:50.646Z,0.70
2017-12-29T19:24:18.902Z,0.70
2017-12-29T19:26:46.396Z,0.70
2017-12-29T19:29:13.902Z,0.70
2017-12-29T19:31:41.407Z,0.60
2017-12-29T19:34:08.923Z,0.60
2017-12-29T19:36:36.447Z,0.60
2017-12-29T19:39:03.961Z,0.60
2017-12-29T19:41:32.257Z,0.60
2017-12-29T19:44:00.518Z,0.60
2017-12-29T19:46:28.795Z,0.60
2017-12-29T19:48:57.684Z,0.60
2017-12-29T19:51:25.974Z,0.50
2017-12-29T19:53:54.451Z,0.50
2017-12-29T19:56:22.935Z,0.40
2017-12-29T19:58:51.214Z,0.40
2017-12-29T20:01:19.466Z,0.30
2017-12-29T20:03:47.154Z,0.30
2017-12-29T20:06:15.433Z,0.30
2017-12-29T20:08:43.082Z,0.30
2017-12-29T20:11:11.576Z,0.30
2017-12-29T20:13:39.111Z,0.30
2017-12-29T20:16:06.607Z,0.30
2017-12-29T20:18:34.128Z,0.30
2017-12-29T20:21:02.402Z,0.20
2017-12-29T20:23:30.725Z,0.20
2017-12-29T20:25:58.266Z,0.20
2017-12-29T20:28:25.840Z,0.20
2017-12-29T20:30:53.327Z,0.30
2017-12-29T20:33:20.827Z,0.20
2017-12-29T20:35:49.099Z,0.30
2017-12-29T20:38:17.401Z,0.30
2017-12-29T20:40:44.954Z,0.20
2017-12-29T20:43:12.496Z,0.20
2017-12-29T20:45:40.772Z,0.20
2017-12-29T20:48:09.287Z,0.30
2017-12-29T20:50:36.922Z,0.20
2017-12-29T20:53:04.446Z,0.20
2017-12-29T20:55:31.964Z,0.20
2017-12-29T20:57:59.472Z,0.20
2017-12-29T21:00:26.991Z,0.20
2017-12-29T21:02:54.498Z,0.20
2017-12-29T21:05:23.517Z,0.20
2017-12-29T21:07:51.807Z,0.20
2017-12-29T21:10:19.294Z,0.20
2017-12-29T21:12:46.783Z,0.10
2017-12-29T21:15:14.291Z,0.10
2017-12-29T21:17:41.779Z,0.10
2017-12-29T21:20:09.270Z,0.10
2017-12-29T21:22:37.526Z,0.10
2017-12-29T21:25:05.036Z,0.10
2017-12-29T21:27:32.670Z,0.10
2017-12-29T21:30:00.923Z,0.00
2017-12-29T21:32:28.431Z,0.00
2017-12-29T21:34:55.921Z,0.00
2017-12-29T21:37:23.431Z,0.00
2017-12-29T21:39:51.682Z,0.00
2017-12-29T21:42:19.192Z,0.00
2017-12-29T21:44:46.710Z,-0.10
2017-12-29T21:47:14.966Z,-0.10
2017-12-29T21:49:42.464Z,-0.10
2017-12-29T21:52:09.962Z,-0.10
2017-12-29T21:54:37.475Z,-0.10
2017-12-29T21:57:04.992Z,-0.10
2017-12-29T21:59:32.504Z,0.00
2017-12-29T22:02:00.011Z,0.00
2017-12-29T22:04:27.502Z,0.00
2017-12-29T22:06:55.778Z,0.00
2017-12-29T22:09:24.034Z,0.00
2017-12-29T22:11:51.555Z,0.00
2017-12-29T22:14:19.058Z,0.00
2017-12-29T22:16:47.326Z,-0.10
2017-12-29T22:19:14.843Z,-0.10
2017-12-29T22:21:42.338Z,-0.10
2017-12-29T22:24:09.842Z,-0.10
2017-12-29T22:26:37.367Z,-0.10
2017-12-29T22:29:05.638Z,-0.10
2017-12-29T22:31:33.138Z,-0.20
2017-12-29T22:34:00.636Z,-0.10
2017-12-29T22:36:28.137Z,-0.10
2017-12-29T22:38:56.958Z,-0.10
2017-12-29T22:41:24.462Z,-0.10
2017-12-29T22:43:51.970Z,-0.20
2017-12-29T22:46:19.468Z,-0.30
2017-12-29T22:48:46.978Z,-0.30
2017-12-29T22:51:14.470Z,-0.30
2017-12-29T22:53:41.979Z,-0.30
2017-12-29T22:56:10.346Z,-0.40
2017-12-29T22:58:38.606Z,-0.40
2017-12-29T23:01:06.862Z,-0.40
2017-12-29T23:03:34.362Z,-0.50
2017-12-29T23:06:02.635Z,-0.50
2017-12-29T23:08:30.898Z,-0.50
2017-12-29T23:10:59.178Z,-0.50
2017-12-29T23:13:27.454Z,-0.50
2017-12-29T23:15:55.711Z,-0.50
2017-12-29T23:18:23.206Z,-0.50
2017-12-29T23:20:50.707Z,-0.50
2017-12-29T23:23:18.198Z,-0.50
2017-12-29T23:25:45.691Z,-0.50
2017-12-29T23:28:13.182Z,-0.40
2017-12-29T23:30:40.678Z,-0.40
2017-12-29T23:33:08.990Z,-0.30
2017-12-29T23:35:36.483Z,-0.30
2017-12-29T23:38:03.990Z,-0.30
2017-12-29T23:40:31.490Z,-0.30
2017-12-29T23:42:58.986Z,-0.20
2017-12-29T23:45:27.248Z,-0.10
2017-12-29T23:47:54.739Z,-0.10
2017-12-29T23:50:22.251Z,-0.10
2017-12-29T23:52:49.765Z,-0.20
2017-12-29T23:55:17.258Z,-0.20
2017-12-29T23:57:44.758Z,-0.20
